createdAt,value
2018-06-02T00:01:36.103Z,7.93
2018-06-02T00:04:04.426Z,8.17
2018-06-02T00:06:32.728Z,7.97
2018-06-02T00:09:01.090Z,7.23
2018-06-02T00:11:31.898Z,6.90
2018-06-02T00:14:00.221Z,8.17
2018-06-02T00:16:28.570Z,7.17
2018-06-02T00:18:56.895Z,7.13
2018-06-02T00:21:25.222Z,7.67
2018-06-02T00:23:53.962Z,9.10
2018-06-02T00:26:22.397Z,37.47
2018-06-02T00:28:50.724Z,8.17
2018-06-02T00:31:19.403Z,8.40
2018-06-02T00:33:47.734Z,8.60
2018-06-02T00:36:16.109Z,9.00
2018-06-02T00:38:44.683Z,8.90
2018-06-02T00:41:12.990Z,7.70
2018-06-02T00:43:41.306Z,10.33
2018-06-02T00:46:09.647Z,9.20
2018-06-02T00:48:37.949Z,8.87
2018-06-02T00:51:06.275Z,10.67
2018-06-02T00:53:34.825Z,10.03
2018-06-02T00:56:03.159Z,9.20
2018-06-02T00:58:31.458Z,9.23
2018-06-02T01:01:00.501Z,10.90
2018-06-02T01:03:28.821Z,9.03
2018-06-02T01:05:57.165Z,9.63
2018-06-02T01:08:25.553Z,10.33
2018-06-02T01:10:53.955Z,9.50
2018-06-02T01:13:22.289Z,9.90
2018-06-02T01:15:50.624Z,9.60
2018-06-02T01:18:19.077Z,10.00
2018-06-02T01:20:47.478Z,10.53
2018-06-02T01:23:16.262Z,10.90
2018-06-02T01:25:44.593Z,11.20
2018-06-02T01:28:13.290Z,11.30
2018-06-02T01:30:42.233Z,10.13
2018-06-02T01:33:10.564Z,10.67
2018-06-02T01:35:38.857Z,11.00
2018-06-02T01:38:07.287Z,9.03
2018-06-02T01:40:35.604Z,10.73
2018-06-02T01:43:03.917Z,9.50
2018-06-02T01:45:32.276Z,11.13
2018-06-02T01:48:00.757Z,9.97
2018-06-02T01:50:29.109Z,11.57
2018-06-02T01:52:57.629Z,10.77
2018-06-02T01:55:25.982Z,9.80
2018-06-02T01:57:54.310Z,10.40
2018-06-02T02:00:22.665Z,11.00
2018-06-02T02:02:51.033Z,10.27
2018-06-02T02:05:19.363Z,9.33
2018-06-02T02:07:48.921Z,10.57
2018-06-02T02:10:18.153Z,10.37
2018-06-02T02:12:46.483Z,9.30
2018-06-02T02:15:14.841Z,10.40
2018-06-02T02:17:43.153Z,10.70
2018-06-02T02:20:11.471Z,10.53
2018-06-02T02:22:39.909Z,10.90
2018-06-02T02:25:08.260Z,11.10
2018-06-02T02:27:36.579Z,11.43
2018-06-02T02:30:06.108Z,11.93
2018-06-02T02:32:34.431Z,11.43
2018-06-02T02:35:02.752Z,13.50
2018-06-02T02:37:31.107Z,11.27
2018-06-02T02:39:59.451Z,12.87
2018-06-02T02:42:27.803Z,13.93
2018-06-02T02:44:56.260Z,12.83
2018-06-02T02:47:24.624Z,16.00
2018-06-02T02:49:53.037Z,15.37
2018-06-02T02:52:22.179Z,15.60
2018-06-02T02:54:50.491Z,15.00
2018-06-02T02:57:18.935Z,16.63
2018-06-02T02:59:47.453Z,16.80
2018-06-02T03:02:16.153Z,13.97
2018-06-02T03:04:44.473Z,14.40
2018-06-02T03:07:14.333Z,15.90
2018-06-02T03:09:43.609Z,14.87
2018-06-02T03:12:11.937Z,14.60
2018-06-02T03:14:40.288Z,15.90
2018-06-02T03:17:08.612Z,13.77
2018-06-02T03:19:36.921Z,17.27
2018-06-02T03:22:05.276Z,15.60
2018-06-02T03:24:33.593Z,15.47
2018-06-02T03:27:01.942Z,14.70
2018-06-02T03:29:31.134Z,17.37
2018-06-02T03:31:59.461Z,17.67
2018-06-02T03:34:27.789Z,17.83
2018-06-02T03:36:56.178Z,17.47
2018-06-02T03:39:24.538Z,20.40
2018-06-02T03:41:52.898Z,16.10
2018-06-02T03:44:21.669Z,17.10
2018-06-02T03:46:50.006Z,16.67
2018-06-02T03:49:18.524Z,17.27
2018-06-02T03:51:47.189Z,17.30
2018-06-02T03:54:15.504Z,17.40
2018-06-02T03:56:43.844Z,16.90
2018-06-02T03:59:12.385Z,18.97
2018-06-02T04:01:40.777Z,18.93
2018-06-02T04:04:09.097Z,16.90
2018-06-02T04:06:37.448Z,16.33
2018-06-02T04:09:05.764Z,18.77
2018-06-02T04:11:34.113Z,20.20
2018-06-02T04:14:03.030Z,17.33
2018-06-02T04:16:31.348Z,19.90
2018-06-02T04:18:59.663Z,15.47
2018-06-02T04:21:28.635Z,18.50
2018-06-02T04:23:56.955Z,18.13
2018-06-02T04:26:25.296Z,17.03
2018-06-02T04:28:53.733Z,17.80
2018-06-02T04:31:23.751Z,17.03
2018-06-02T04:33:52.184Z,15.87
2018-06-02T04:36:21.337Z,17.67
2018-06-02T04:38:49.648Z,14.60
2018-06-02T04:41:18.025Z,15.37
2018-06-02T04:43:46.435Z,15.10
2018-06-02T04:46:14.756Z,13.50
2018-06-02T04:48:43.070Z,12.70
2018-06-02T04:51:11.782Z,11.90
2018-06-02T04:53:40.117Z,11.30
2018-06-02T04:56:08.443Z,9.57
2018-06-02T04:58:37.386Z,10.87
2018-06-02T05:01:05.697Z,11.00
2018-06-02T05:03:34.034Z,10.60
2018-06-02T05:06:02.377Z,8.67
2018-06-02T05:08:30.714Z,8.60
2018-06-02T05:10:59.037Z,8.20
2018-06-02T05:13:28.297Z,8.40
2018-06-02T05:15:56.613Z,8.83
2018-06-02T05:18:24.948Z,8.40
2018-06-02T05:20:53.645Z,7.80
2018-06-02T05:23:22.051Z,8.47
2018-06-02T05:25:50.386Z,7.97
2018-06-02T05:28:18.769Z,8.80
2018-06-02T05:30:47.590Z,7.87
2018-06-02T05:33:15.937Z,7.73
2018-06-02T05:35:44.294Z,7.00
2018-06-02T05:38:12.595Z,7.70
2018-06-02T05:40:40.954Z,7.83
2018-06-02T05:43:09.274Z,7.93
2018-06-02T05:45:37.609Z,7.20
2018-06-02T05:48:05.900Z,7.90
2018-06-02T05:50:34.251Z,7.47
2018-06-02T05:53:02.560Z,8.67
2018-06-02T05:55:30.886Z,8.33
2018-06-02T05:57:59.256Z,9.47
2018-06-02T06:00:27.590Z,6.77
2018-06-02T06:02:55.911Z,6.17
2018-06-02T06:05:25.166Z,7.47
2018-06-02T06:07:53.525Z,6.50
2018-06-02T06:10:21.923Z,6.50
2018-06-02T06:12:50.304Z,6.67
2018-06-02T06:15:18.656Z,7.20
2018-06-02T06:17:46.966Z,7.50
2018-06-02T06:20:15.929Z,8.10
2018-06-02T06:22:44.261Z,6.80
2018-06-02T06:25:12.567Z,7.43
2018-06-02T06:27:42.699Z,6.87
2018-06-02T06:30:11.012Z,6.30
2018-06-02T06:32:39.313Z,6.87
2018-06-02T06:35:07.736Z,6.50
2018-06-02T06:37:36.175Z,6.27
2018-06-02T06:40:04.481Z,6.80
2018-06-02T06:42:32.829Z,6.50
2018-06-02T06:45:01.153Z,7.40
2018-06-02T06:47:29.481Z,6.10
2018-06-02T06:49:58.155Z,5.93
2018-06-02T06:52:26.533Z,6.43
2018-06-02T06:54:55.075Z,4.97
2018-06-02T06:57:23.582Z,5.37
2018-06-02T06:59:51.915Z,6.77
2018-06-02T07:02:20.237Z,6.60
2018-06-02T07:04:48.612Z,7.10
2018-06-02T07:07:17.021Z,6.73
2018-06-02T07:09:45.354Z,5.77
2018-06-02T07:12:14.010Z,7.20
2018-06-02T07:14:42.312Z,6.37
2018-06-02T07:17:10.637Z,5.50
2018-06-02T07:19:38.968Z,6.33
2018-06-02T07:22:07.280Z,6.60
2018-06-02T07:24:35.598Z,6.10
2018-06-02T07:27:03.932Z,6.10
2018-06-02T07:29:32.222Z,6.60
2018-06-02T07:32:00.534Z,5.23
2018-06-02T07:34:29.624Z,6.33
2018-06-02T07:36:57.953Z,6.03
2018-06-02T07:39:26.278Z,5.23
2018-06-02T07:41:54.631Z,5.10
2018-06-02T07:44:23.079Z,4.50
2018-06-02T07:46:51.386Z,6.30
2018-06-02T07:49:19.922Z,4.80
2018-06-02T07:51:48.262Z,4.90
2018-06-02T07:54:16.602Z,4.00
2018-06-02T07:56:45.746Z,4.13
2018-06-02T07:59:14.036Z,4.43
2018-06-02T08:01:42.346Z,3.63
2018-06-02T08:04:11.466Z,3.50
2018-06-02T08:06:39.773Z,3.90
2018-06-02T08:09:08.083Z,3.90
2018-06-02T08:11:36.505Z,3.60
2018-06-02T08:14:04.805Z,3.30
2018-06-02T08:16:33.125Z,3.83
2018-06-02T08:19:01.617Z,4.27
2018-06-02T08:21:30.041Z,4.60
2018-06-02T08:23:58.369Z,4.57
2018-06-02T08:26:26.902Z,3.77
2018-06-02T08:28:55.288Z,3.50
2018-06-02T08:31:23.611Z,4.33
2018-06-02T08:33:52.370Z,4.67
2018-06-02T08:36:21.530Z,3.80
2018-06-02T08:38:49.878Z,3.90
2018-06-02T08:41:19.119Z,4.03
2018-06-02T08:43:47.449Z,3.77
2018-06-02T08:46:15.769Z,3.87
2018-06-02T08:48:44.105Z,4.10
2018-06-02T08:51:12.441Z,3.93
2018-06-02T08:53:40.752Z,4.93
2018-06-02T08:56:09.335Z,3.90
2018-06-02T08:58:37.645Z,3.60
2018-06-02T09:01:05.944Z,3.97
2018-06-02T09:03:35.024Z,4.50
2018-06-02T09:06:04.263Z,4.57
2018-06-02T09:08:32.577Z,3.50
2018-06-02T09:11:00.917Z,5.97
2018-06-02T09:13:29.242Z,4.70
2018-06-02T09:15:57.739Z,4.20
2018-06-02T09:18:26.886Z,4.87
2018-06-02T09:20:55.250Z,5.00
2018-06-02T09:23:23.598Z,5.80
2018-06-02T09:25:51.968Z,5.53
2018-06-02T09:28:20.280Z,5.83
2018-06-02T09:30:48.603Z,4.60
2018-06-02T09:33:17.076Z,3.90
2018-06-02T09:35:45.424Z,5.03
2018-06-02T09:38:13.764Z,4.20
2018-06-02T09:40:43.378Z,4.73
2018-06-02T09:43:11.704Z,5.23
2018-06-02T09:45:40.019Z,4.17
2018-06-02T09:48:08.398Z,4.00
2018-06-02T09:50:36.683Z,5.13
2018-06-02T09:53:04.989Z,4.90
2018-06-02T09:55:33.345Z,4.77
2018-06-02T09:58:01.670Z,5.07
2018-06-02T10:00:30.809Z,5.00
2018-06-02T10:02:59.175Z,4.70
2018-06-02T10:05:27.476Z,4.57
2018-06-02T10:07:55.809Z,4.97
2018-06-02T10:10:25.510Z,4.67
2018-06-02T10:12:53.914Z,4.17
2018-06-02T10:15:22.319Z,4.90
2018-06-02T10:17:50.684Z,4.57
2018-06-02T10:20:19.041Z,4.57
2018-06-02T10:22:47.357Z,4.57
2018-06-02T10:25:15.806Z,4.67
2018-06-02T10:27:44.119Z,4.97
2018-06-02T10:30:12.437Z,4.43
2018-06-02T10:32:40.773Z,4.90
2018-06-02T10:35:09.091Z,4.17
2018-06-02T10:37:37.525Z,4.80
2018-06-02T10:40:05.875Z,6.00
2018-06-02T10:42:34.189Z,4.63
2018-06-02T10:45:02.503Z,4.60
2018-06-02T10:47:31.476Z,5.00
2018-06-02T10:49:59.810Z,4.60
2018-06-02T10:52:28.132Z,5.20
2018-06-02T10:54:56.966Z,5.90
2018-06-02T10:57:25.266Z,5.20
2018-06-02T10:59:53.634Z,6.13
2018-06-02T11:02:22.046Z,5.50
2018-06-02T11:04:50.371Z,4.70
2018-06-02T11:07:18.692Z,6.17
2018-06-02T11:09:47.151Z,4.73
2018-06-02T11:12:15.465Z,5.40
2018-06-02T11:14:43.809Z,5.57
2018-06-02T11:17:13.693Z,4.70
2018-06-02T11:19:42.172Z,6.70
2018-06-02T11:22:10.487Z,5.60
2018-06-02T11:24:38.829Z,5.43
2018-06-02T11:27:07.124Z,3.80
2018-06-02T11:29:35.433Z,5.70
2018-06-02T11:32:04.558Z,4.60
2018-06-02T11:34:32.875Z,5.23
2018-06-02T11:37:01.181Z,4.43
2018-06-02T11:39:30.183Z,5.40
2018-06-02T11:41:58.481Z,5.20
2018-06-02T11:44:26.806Z,4.67
2018-06-02T11:46:55.143Z,4.03
2018-06-02T11:49:23.493Z,4.47
2018-06-02T11:51:51.838Z,4.57
2018-06-02T11:54:20.761Z,5.27
2018-06-02T11:56:49.210Z,5.30
2018-06-02T11:59:17.599Z,4.27
2018-06-02T12:01:47.480Z,4.90
2018-06-02T12:04:16.495Z,5.77
2018-06-02T12:06:44.807Z,4.70
2018-06-02T12:09:13.153Z,5.63
2018-06-02T12:11:41.489Z,5.30
2018-06-02T12:14:09.794Z,4.83
2018-06-02T12:16:38.737Z,4.80
2018-06-02T12:19:07.074Z,5.80
2018-06-02T12:21:35.386Z,4.67
2018-06-02T12:24:04.643Z,4.40
2018-06-02T12:26:32.942Z,4.43
2018-06-02T12:29:01.270Z,4.23
2018-06-02T12:31:29.847Z,3.80
2018-06-02T12:33:58.223Z,4.40
2018-06-02T12:36:26.705Z,4.10
2018-06-02T12:38:55.302Z,3.43
2018-06-02T12:41:23.696Z,3.90
2018-06-02T12:43:52.047Z,4.00
2018-06-02T12:46:21.288Z,3.77
2018-06-02T12:48:49.616Z,4.20
2018-06-02T12:51:17.962Z,4.13
2018-06-02T12:53:46.387Z,3.87
2018-06-02T12:56:14.697Z,4.50
2018-06-02T12:58:42.997Z,4.37
2018-06-02T13:01:11.337Z,3.90
2018-06-02T13:03:39.695Z,4.70
2018-06-02T13:06:07.978Z,4.50
2018-06-02T13:08:36.781Z,5.13
2018-06-02T13:11:05.070Z,4.13
2018-06-02T13:13:33.433Z,4.03
2018-06-02T13:16:01.777Z,3.70
2018-06-02T13:18:30.105Z,4.57
2018-06-02T13:20:58.413Z,4.13
2018-06-02T13:23:26.749Z,3.63
2018-06-02T13:25:55.087Z,4.40
2018-06-02T13:28:23.435Z,4.03
2018-06-02T13:30:52.643Z,4.43
2018-06-02T13:33:20.969Z,4.00
2018-06-02T13:35:49.296Z,4.90
2018-06-02T13:38:18.130Z,18.97
2018-06-02T13:40:46.509Z,33.37
2018-06-02T13:43:14.884Z,37.27
2018-06-02T13:45:45.024Z,46.50
2018-06-02T13:48:13.372Z,44.20
2018-06-02T13:50:41.684Z,44.63
2018-06-02T13:53:10.033Z,42.70
2018-06-02T13:55:38.344Z,42.23
2018-06-02T13:58:06.670Z,45.67
2018-06-02T14:00:35.037Z,38.93
2018-06-02T14:03:03.380Z,38.97
2018-06-02T14:05:31.701Z,34.53
2018-06-02T14:08:00.627Z,29.83
2018-06-02T14:10:28.953Z,30.40
2018-06-02T14:12:57.278Z,28.37
2018-06-02T14:15:25.633Z,27.90
2018-06-02T14:17:53.980Z,26.63
2018-06-02T14:20:22.389Z,26.83
2018-06-02T14:22:50.848Z,27.03
2018-06-02T14:25:19.166Z,26.23
2018-06-02T14:27:47.611Z,25.50
2018-06-02T14:30:16.786Z,29.10
2018-06-02T14:32:45.117Z,28.27
2018-06-02T14:35:13.444Z,25.43
2018-06-02T14:37:42.226Z,28.77
2018-06-02T14:40:10.514Z,24.80
2018-06-02T14:42:38.910Z,25.20
2018-06-02T14:45:07.461Z,25.03
2018-06-02T14:47:35.804Z,22.97
2018-06-02T14:50:04.123Z,22.70
2018-06-02T14:52:34.149Z,23.27
2018-06-02T14:55:02.528Z,25.37
2018-06-02T14:57:30.785Z,24.27
2018-06-02T14:59:59.920Z,21.50
2018-06-02T15:02:28.329Z,22.47
2018-06-02T15:04:56.636Z,20.10
2018-06-02T15:07:25.777Z,20.23
2018-06-02T15:09:54.181Z,17.53
2018-06-02T15:12:22.574Z,18.23
2018-06-02T15:14:51.005Z,18.10
2018-06-02T15:17:19.434Z,15.97
2018-06-02T15:19:47.791Z,17.80
2018-06-02T15:22:16.215Z,15.70
2018-06-02T15:24:44.552Z,17.40
2018-06-02T15:27:12.920Z,17.60
2018-06-02T15:29:41.530Z,16.47
2018-06-02T15:32:09.860Z,16.63
2018-06-02T15:34:38.214Z,15.83
2018-06-02T15:37:06.987Z,14.90
2018-06-02T15:39:35.305Z,16.43
2018-06-02T15:42:03.615Z,17.17
2018-06-02T15:44:32.836Z,16.97
2018-06-02T15:47:01.193Z,17.50
2018-06-02T15:49:29.519Z,16.80
2018-06-02T15:51:58.152Z,18.63
2018-06-02T15:54:26.538Z,19.70
2018-06-02T15:56:55.087Z,18.40
2018-06-02T15:59:23.504Z,17.13
2018-06-02T16:01:51.855Z,17.10
2018-06-02T16:04:20.273Z,15.37
2018-06-02T16:06:49.537Z,15.37
2018-06-02T16:09:17.881Z,15.80
2018-06-02T16:11:46.236Z,15.10
2018-06-02T16:14:14.571Z,17.37
2018-06-02T16:16:42.933Z,17.27
2018-06-02T16:19:11.291Z,17.17
2018-06-02T16:21:39.626Z,16.20
2018-06-02T16:24:07.985Z,15.63
2018-06-02T16:26:36.300Z,16.67
2018-06-02T16:29:04.648Z,19.00
2018-06-02T16:31:32.980Z,17.07
2018-06-02T16:34:01.342Z,17.97
2018-06-02T16:36:29.770Z,17.30
2018-06-02T16:38:58.196Z,18.27
2018-06-02T16:41:26.599Z,18.40
2018-06-02T16:43:54.993Z,19.60
2018-06-02T16:46:23.908Z,19.87
2018-06-02T16:48:52.321Z,17.43
2018-06-02T16:51:21.559Z,18.63
2018-06-02T16:53:50.036Z,17.63
2018-06-02T16:56:18.441Z,17.47
2018-06-02T16:58:47.230Z,17.97
2018-06-02T17:01:15.584Z,16.67
2018-06-02T17:03:43.927Z,15.27
2018-06-02T17:06:12.256Z,16.00
2018-06-02T17:08:40.596Z,16.10
2018-06-02T17:11:08.926Z,16.90
2018-06-02T17:13:38.329Z,15.50
2018-06-02T17:16:06.660Z,15.20
2018-06-02T17:18:34.979Z,16.10
2018-06-02T17:21:03.746Z,15.70
2018-06-02T17:23:32.097Z,14.63
2018-06-02T17:26:00.491Z,17.70
2018-06-02T17:28:29.343Z,14.27
2018-06-02T17:30:57.801Z,15.73
2018-06-02T17:33:26.179Z,14.77
2018-06-02T17:35:54.681Z,16.07
2018-06-02T17:38:23.162Z,16.20
2018-06-02T17:40:51.849Z,14.73
2018-06-02T17:43:20.229Z,15.03
2018-06-02T17:45:48.608Z,15.90
2018-06-02T17:48:16.967Z,15.23
2018-06-02T17:50:45.349Z,14.37
2018-06-02T17:53:13.663Z,14.13
2018-06-02T17:55:42.013Z,15.00
2018-06-02T17:58:10.368Z,12.90
2018-06-02T18:00:38.694Z,14.63
2018-06-02T18:03:07.033Z,14.47
2018-06-02T18:05:35.377Z,13.23
2018-06-02T18:08:03.713Z,14.97
2018-06-02T18:10:32.177Z,13.83
2018-06-02T18:13:01.211Z,13.50
2018-06-02T18:15:29.523Z,12.93
2018-06-02T18:17:57.951Z,12.90
2018-06-02T18:20:26.432Z,12.60
2018-06-02T18:22:54.745Z,12.20
2018-06-02T18:25:23.182Z,12.83
2018-06-02T18:27:52.131Z,11.90
2018-06-02T18:30:20.776Z,13.33
2018-06-02T18:32:49.246Z,12.97
2018-06-02T18:35:18.015Z,12.20
2018-06-02T18:37:46.438Z,12.30
2018-06-02T18:40:14.770Z,12.47
2018-06-02T18:42:43.916Z,14.13
2018-06-02T18:45:12.262Z,12.70
2018-06-02T18:47:41.510Z,12.70
2018-06-02T18:50:09.897Z,15.13
2018-06-02T18:52:38.215Z,14.30
2018-06-02T18:55:06.548Z,14.50
2018-06-02T18:57:35.807Z,15.70
2018-06-02T19:00:04.162Z,15.20
2018-06-02T19:02:32.538Z,15.90
2018-06-02T19:05:00.921Z,17.33
2018-06-02T19:07:29.517Z,16.80
2018-06-02T19:09:57.888Z,16.77
2018-06-02T19:12:27.021Z,18.33
2018-06-02T19:14:55.373Z,16.17
2018-06-02T19:17:23.752Z,16.93
2018-06-02T19:19:53.009Z,18.50
2018-06-02T19:22:21.517Z,18.13
2018-06-02T19:24:49.945Z,18.53
2018-06-02T19:27:18.507Z,18.87
2018-06-02T19:29:46.947Z,19.40
2018-06-02T19:32:15.341Z,17.13
2018-06-02T19:34:43.782Z,19.37
2018-06-02T19:37:12.118Z,18.97
2018-06-02T19:39:40.434Z,19.03
2018-06-02T19:42:08.808Z,19.03
2018-06-02T19:44:37.133Z,20.27
2018-06-02T19:47:05.497Z,19.07
2018-06-02T19:49:33.850Z,22.00
2018-06-02T19:52:02.244Z,22.10
2018-06-02T19:54:30.684Z,21.23
2018-06-02T19:56:59.845Z,20.33
2018-06-02T19:59:28.340Z,21.17
2018-06-02T20:01:56.796Z,20.90
2018-06-02T20:04:25.209Z,21.43
2018-06-02T20:06:53.585Z,21.10
2018-06-02T20:09:21.951Z,20.70
2018-06-02T20:11:50.333Z,19.13
2018-06-02T20:14:18.829Z,21.80
2018-06-02T20:16:47.561Z,20.23
2018-06-02T20:19:16.016Z,18.73
2018-06-02T20:21:44.337Z,19.97
2018-06-02T20:24:12.671Z,16.97
2018-06-02T20:26:41.750Z,18.70
2018-06-02T20:29:10.718Z,19.50
2018-06-02T20:31:39.031Z,16.70
2018-06-02T20:34:07.683Z,17.50
2018-06-02T20:36:36.099Z,17.30
2018-06-02T20:39:04.472Z,16.43
2018-06-02T20:41:33.539Z,20.40
2018-06-02T20:44:01.876Z,17.10
2018-06-02T20:46:30.228Z,17.27
2018-06-02T20:48:58.880Z,15.97
2018-06-02T20:51:27.226Z,16.77
2018-06-02T20:53:55.542Z,16.50
2018-06-02T20:56:24.025Z,17.27
2018-06-02T20:58:52.402Z,17.20
2018-06-02T21:01:20.800Z,15.73
2018-06-02T21:03:50.307Z,16.50
2018-06-02T21:06:18.820Z,15.07
2018-06-02T21:08:47.434Z,16.23
2018-06-02T21:11:15.849Z,18.60
2018-06-02T21:13:44.175Z,15.10
2018-06-02T21:16:12.501Z,16.90
2018-06-02T21:18:40.879Z,13.17
2018-06-02T21:21:09.199Z,13.40
2018-06-02T21:23:37.507Z,13.43
2018-06-02T21:26:07.733Z,13.17
2018-06-02T21:28:36.096Z,13.50
2018-06-02T21:31:04.454Z,14.00
2018-06-02T21:33:33.145Z,14.13
2018-06-02T21:36:01.474Z,14.73
2018-06-02T21:38:29.794Z,12.63
2018-06-02T21:40:58.289Z,12.30
2018-06-02T21:43:26.658Z,12.83
2018-06-02T21:45:55.069Z,13.03
2018-06-02T21:48:23.536Z,14.17
2018-06-02T21:50:52.214Z,14.10
2018-06-02T21:53:20.608Z,14.80
2018-06-02T21:55:49.289Z,14.60
2018-06-02T21:58:17.859Z,14.03
2018-06-02T22:00:46.229Z,14.83
2018-06-02T22:03:16.117Z,14.77
2018-06-02T22:05:44.425Z,15.87
2018-06-02T22:08:12.729Z,18.33
2018-06-02T22:10:41.606Z,16.57
2018-06-02T22:13:09.971Z,17.10
2018-06-02T22:15:38.265Z,18.23
2018-06-02T22:18:07.136Z,19.77
2018-06-02T22:20:35.452Z,18.03
2018-06-02T22:23:03.792Z,17.33
2018-06-02T22:25:33.403Z,19.40
2018-06-02T22:28:01.838Z,21.13
2018-06-02T22:30:30.256Z,19.43
2018-06-02T22:32:58.975Z,19.00
2018-06-02T22:35:27.552Z,21.20
2018-06-02T22:37:56.127Z,22.40
2018-06-02T22:40:25.452Z,18.17
2018-06-02T22:42:54.135Z,22.00
2018-06-02T22:45:22.476Z,20.90
2018-06-02T22:47:51.878Z,19.60
2018-06-02T22:50:20.299Z,21.30
2018-06-02T22:52:50.253Z,19.57
2018-06-02T22:55:19.664Z,21.10
2018-06-02T22:57:48.067Z,20.33
2018-06-02T23:00:21.243Z,23.10
2018-06-02T23:02:49.624Z,22.27
2018-06-02T23:05:18.080Z,22.83
2018-06-02T23:07:47.586Z,21.93
2018-06-02T23:10:15.899Z,20.83
2018-06-02T23:12:44.214Z,19.93
2018-06-02T23:15:12.945Z,18.40
2018-06-02T23:17:41.277Z,20.57
2018-06-02T23:20:09.654Z,20.30
2018-06-02T23:22:38.817Z,20.03
2018-06-02T23:25:07.908Z,19.83
2018-06-02T23:27:36.219Z,19.90
2018-06-02T23:30:05.527Z,19.20
2018-06-02T23:32:33.862Z,19.70
2018-06-02T23:35:02.202Z,18.20
2018-06-02T23:37:31.117Z,19.77
2018-06-02T23:39:59.445Z,21.03
2018-06-02T23:42:27.811Z,19.87
2018-06-02T23:44:56.172Z,19.40
2018-06-02T23:47:24.526Z,21.57
2018-06-02T23:49:52.913Z,19.80
2018-06-02T23:52:21.286Z,20.97
2018-06-02T23:54:49.682Z,21.80
2018-06-02T23:57:18.041Z,21.90
2018-06-02T23:59:46.456Z,20.83
